createdAt,value
2017-08-21T00:01:11.262Z,69.80
2017-08-21T00:04:12.733Z,71.20
2017-08-21T00:07:14.222Z,70.80
2017-08-21T00:10:15.757Z,70.20
2017-08-21T00:13:17.253Z,69.80
2017-08-21T00:16:19.475Z,71.00
2017-08-21T00:19:21.062Z,70.80
2017-08-21T00:22:23.344Z,71.80
2017-08-21T00:25:25.630Z,70.90
2017-08-21T00:28:27.074Z,70.60
2017-08-21T00:31:29.396Z,70.90
2017-08-21T00:34:31.078Z,70.70
2017-08-21T00:37:32.661Z,70.80
2017-08-21T00:40:34.863Z,71.40
2017-08-21T00:43:36.436Z,69.80
2017-08-21T00:46:38.170Z,70.80
2017-08-21T00:49:39.692Z,71.00
2017-08-21T00:55:49.411Z,71.00
2017-08-21T00:58:50.980Z,70.90
2017-08-21T01:01:52.544Z,70.90
2017-08-21T01:04:54.088Z,70.90
2017-08-21T01:07:55.573Z,71.10
2017-08-21T01:10:57.132Z,71.40
2017-08-21T01:13:58.782Z,70.50
2017-08-21T01:17:01.033Z,71.70
2017-08-21T01:20:02.633Z,71.00
2017-08-21T01:23:04.146Z,70.80
2017-08-21T01:26:05.722Z,71.20
2017-08-21T01:29:07.217Z,71.10
2017-08-21T01:32:08.749Z,70.60
2017-08-21T01:35:11.147Z,71.70
2017-08-21T01:38:12.642Z,71.00
2017-08-21T01:41:14.228Z,71.30
2017-08-21T01:44:16.445Z,72.00
2017-08-21T01:47:17.983Z,71.10
2017-08-21T01:50:19.460Z,69.50
2017-08-21T01:53:20.933Z,70.90
2017-08-21T01:56:22.501Z,71.00
2017-08-21T01:59:23.998Z,71.00
2017-08-21T02:02:25.457Z,69.40
2017-08-21T02:05:26.965Z,70.90
2017-08-21T02:08:28.394Z,70.80
2017-08-21T02:11:29.892Z,69.90
2017-08-21T02:14:31.358Z,70.90
2017-08-21T02:17:32.848Z,71.20
2017-08-21T02:20:34.307Z,71.00
2017-08-21T02:23:35.778Z,70.40
2017-08-21T02:26:37.299Z,70.10
2017-08-21T02:29:38.778Z,71.10
2017-08-21T02:32:40.293Z,71.00
2017-08-21T02:35:41.790Z,71.10
2017-08-21T02:38:45.124Z,70.10
2017-08-21T02:41:46.604Z,71.00
2017-08-21T02:44:48.127Z,70.60
2017-08-21T02:47:49.580Z,71.20
2017-08-21T02:50:51.099Z,70.90
2017-08-21T02:53:52.537Z,71.10
2017-08-21T02:56:54.035Z,71.20
2017-08-21T02:59:55.545Z,71.30
2017-08-21T03:02:57.075Z,71.10
2017-08-21T03:05:58.519Z,71.90
2017-08-21T03:08:59.913Z,71.30
2017-08-21T03:12:01.345Z,70.80
2017-08-21T03:15:02.829Z,71.10
2017-08-21T03:18:04.326Z,71.10
2017-08-21T03:21:05.867Z,70.40
2017-08-21T03:24:07.432Z,71.70
2017-08-21T03:27:08.938Z,71.40
2017-08-21T03:30:10.443Z,71.40
2017-08-21T03:33:11.928Z,70.50
2017-08-21T03:36:13.414Z,70.30
2017-08-21T03:39:15.709Z,71.20
2017-08-21T03:42:17.187Z,72.00
2017-08-21T03:45:18.702Z,71.30
2017-08-21T03:48:20.884Z,71.00
2017-08-21T03:51:22.350Z,70.40
2017-08-21T03:54:23.788Z,69.80
2017-08-21T03:57:25.253Z,69.40
2017-08-21T04:00:26.766Z,70.10
2017-08-21T04:03:28.237Z,71.30
2017-08-21T04:06:29.739Z,71.00
2017-08-21T04:09:31.211Z,71.30
2017-08-21T04:12:32.678Z,71.50
2017-08-21T04:15:34.120Z,71.60
2017-08-21T04:18:35.555Z,71.90
2017-08-21T04:21:37.000Z,70.00
2017-08-21T04:24:38.533Z,70.50
2017-08-21T04:27:40.022Z,71.20
2017-08-21T04:30:41.560Z,71.30
2017-08-21T04:33:43.031Z,69.90
2017-08-21T04:36:44.543Z,70.70
2017-08-21T04:39:46.008Z,71.50
2017-08-21T04:42:47.454Z,70.20
2017-08-21T04:45:49.008Z,71.20
2017-08-21T04:48:50.441Z,71.30
2017-08-21T04:51:52.642Z,71.20
2017-08-21T04:54:54.180Z,72.50
2017-08-21T05:01:03.818Z,71.80
2017-08-21T05:04:05.260Z,72.30
2017-08-21T05:07:07.484Z,73.20
2017-08-21T05:10:08.937Z,73.00
2017-08-21T05:13:10.373Z,73.20
2017-08-21T05:16:11.817Z,74.00
2017-08-21T05:19:13.247Z,74.10
2017-08-21T05:22:14.704Z,74.50
2017-08-21T05:25:16.933Z,75.80
2017-08-21T05:28:18.416Z,75.30
2017-08-21T05:31:19.812Z,73.90
2017-08-21T05:34:21.283Z,74.80
2017-08-21T05:37:22.730Z,75.10
2017-08-21T05:40:24.136Z,74.50
2017-08-21T05:43:25.649Z,75.60
2017-08-21T05:46:27.125Z,75.70
2017-08-21T05:49:28.580Z,76.20
2017-08-21T05:52:30.020Z,75.60
2017-08-21T05:55:31.468Z,74.90
2017-08-21T05:58:33.039Z,74.90
2017-08-21T06:01:34.556Z,76.30
2017-08-21T06:04:36.058Z,76.20
2017-08-21T06:07:38.145Z,77.00
2017-08-21T06:10:39.540Z,76.90
2017-08-21T06:13:40.869Z,77.30
2017-08-21T06:16:42.265Z,77.00
2017-08-21T06:19:43.625Z,77.10
2017-08-21T06:22:44.994Z,77.30
2017-08-21T06:25:47.074Z,78.00
2017-08-21T06:28:48.440Z,78.70
2017-08-21T06:31:49.788Z,78.10
2017-08-21T06:34:51.131Z,78.40
2017-08-21T06:37:52.495Z,78.50
2017-08-21T06:40:53.867Z,78.70
2017-08-21T06:43:55.277Z,79.00
2017-08-21T06:46:56.655Z,79.00
2017-08-21T06:49:57.997Z,79.20
2017-08-21T06:52:59.315Z,79.00
2017-08-21T06:56:01.459Z,78.80
2017-08-21T06:59:02.913Z,78.50
2017-08-21T07:02:04.279Z,76.30
2017-08-21T07:05:06.378Z,77.70
2017-08-21T07:08:07.719Z,77.70
2017-08-21T07:11:09.129Z,78.20
2017-08-21T07:14:10.479Z,76.10
2017-08-21T07:17:11.885Z,76.30
2017-08-21T07:20:13.298Z,75.40
2017-08-21T07:23:15.428Z,73.90
2017-08-21T07:26:16.813Z,73.80
2017-08-21T07:29:18.915Z,72.30
2017-08-21T07:32:20.287Z,71.50
2017-08-21T07:35:22.046Z,70.20
2017-08-21T07:38:23.456Z,69.30
2017-08-21T07:41:25.564Z,69.20
2017-08-21T07:44:26.944Z,69.20
2017-08-21T07:47:28.283Z,69.80
2017-08-21T07:50:29.675Z,69.00
2017-08-21T07:53:31.781Z,65.60
2017-08-21T07:56:33.131Z,65.40
2017-08-21T07:59:34.499Z,65.10
2017-08-21T08:02:35.896Z,66.00
2017-08-21T08:05:37.311Z,63.20
2017-08-21T08:08:38.758Z,63.00
2017-08-21T08:11:40.139Z,64.80
2017-08-21T08:14:42.390Z,71.30
2017-08-21T08:17:43.870Z,70.80
2017-08-21T08:20:46.041Z,67.00
2017-08-21T08:23:48.110Z,64.40
2017-08-21T08:26:49.547Z,64.30
2017-08-21T08:29:50.966Z,60.50
2017-08-21T08:32:52.313Z,63.60
2017-08-21T08:35:53.711Z,62.10
2017-08-21T08:38:55.060Z,63.90
2017-08-21T08:41:57.164Z,62.70
2017-08-21T08:44:58.507Z,62.60
2017-08-21T08:47:59.883Z,61.70
2017-08-21T08:51:01.269Z,62.50
2017-08-21T08:54:03.410Z,59.70
2017-08-21T08:57:04.772Z,60.00
2017-08-21T09:00:06.162Z,60.40
2017-08-21T09:03:07.621Z,60.60
2017-08-21T09:10:04.130Z,62.90
2017-08-21T09:13:05.559Z,64.40
2017-08-21T09:16:06.955Z,60.30
2017-08-21T09:19:08.375Z,62.70
2017-08-21T09:22:09.737Z,62.90
2017-08-21T09:25:11.146Z,61.80
2017-08-21T09:28:12.507Z,60.70
2017-08-21T09:31:13.967Z,60.00
2017-08-21T09:34:15.348Z,63.20
2017-08-21T09:37:16.724Z,63.50
2017-08-21T09:40:19.048Z,63.10
2017-08-21T09:43:20.482Z,62.90
2017-08-21T09:46:22.016Z,59.70
2017-08-21T09:49:23.482Z,59.20
2017-08-21T09:52:24.924Z,60.00
2017-08-21T09:55:26.324Z,59.80
2017-08-21T09:58:27.741Z,59.20
2017-08-21T10:01:29.166Z,60.80
2017-08-21T10:04:30.649Z,60.90
2017-08-21T10:07:32.095Z,59.60
2017-08-21T10:10:33.574Z,59.40
2017-08-21T10:13:35.041Z,61.90
2017-08-21T10:16:36.487Z,60.00
2017-08-21T10:19:37.930Z,60.10
2017-08-21T10:22:39.364Z,59.00
2017-08-21T10:25:40.806Z,61.80
2017-08-21T10:28:43.662Z,64.60
2017-08-21T10:31:45.153Z,64.80
2017-08-21T10:34:46.628Z,64.20
2017-08-21T10:37:48.076Z,61.80
2017-08-21T10:40:49.514Z,64.20
2017-08-21T10:43:51.101Z,64.00
2017-08-21T10:46:52.580Z,64.30
2017-08-21T10:49:54.150Z,61.70
2017-08-21T10:52:55.628Z,58.50
2017-08-21T10:55:57.113Z,61.90
2017-08-21T10:58:58.516Z,61.20
2017-08-21T11:01:59.957Z,59.30
2017-08-21T11:05:01.316Z,61.70
2017-08-21T11:08:02.731Z,58.10
2017-08-21T11:11:04.134Z,61.00
2017-08-21T11:14:05.509Z,61.70
2017-08-21T11:17:06.862Z,64.40
2017-08-21T11:20:08.290Z,61.50
2017-08-21T11:23:09.690Z,60.40
2017-08-21T11:26:11.032Z,59.70
2017-08-21T11:29:12.431Z,56.60
2017-08-21T11:32:13.816Z,58.80
2017-08-21T11:35:15.172Z,57.50
2017-08-21T11:38:16.532Z,57.20
2017-08-21T11:41:17.949Z,59.20
2017-08-21T11:44:19.352Z,56.10
2017-08-21T11:47:20.716Z,57.20
2017-08-21T11:50:22.124Z,59.40
2017-08-21T11:53:23.472Z,54.80
2017-08-21T11:56:24.931Z,56.80
2017-08-21T11:59:26.278Z,56.40
2017-08-21T12:02:27.766Z,54.30
2017-08-21T12:05:29.177Z,51.90
2017-08-21T12:08:30.574Z,50.00
2017-08-21T12:11:32.015Z,55.10
2017-08-21T12:14:35.012Z,53.70
2017-08-21T12:17:36.394Z,54.30
2017-08-21T12:20:37.776Z,51.70
2017-08-21T12:23:39.263Z,50.80
2017-08-21T12:26:40.632Z,51.60
2017-08-21T12:29:42.007Z,55.30
2017-08-21T12:32:43.422Z,51.90
2017-08-21T12:35:44.971Z,48.70
2017-08-21T12:38:46.538Z,48.50
2017-08-21T12:41:47.969Z,48.60
2017-08-21T12:44:49.394Z,54.50
2017-08-21T12:47:50.780Z,51.80
2017-08-21T12:50:52.472Z,51.40
2017-08-21T12:53:53.884Z,51.80
2017-08-21T12:56:55.218Z,53.30
2017-08-21T12:59:56.721Z,50.10
2017-08-21T13:02:58.121Z,53.70
2017-08-21T13:05:59.536Z,49.20
2017-08-21T13:09:01.209Z,51.60
2017-08-21T13:12:02.798Z,48.20
2017-08-21T13:15:04.225Z,45.30
2017-08-21T13:18:05.668Z,48.70
2017-08-21T13:21:07.161Z,52.80
2017-08-21T13:24:08.563Z,52.50
2017-08-21T13:27:09.965Z,51.40
2017-08-21T13:30:11.320Z,55.10
2017-08-21T13:33:15.902Z,58.50
2017-08-21T13:36:18.045Z,57.40
2017-08-21T13:39:19.723Z,57.70
2017-08-21T13:42:21.191Z,51.90
2017-08-21T13:45:22.916Z,55.50
2017-08-21T13:48:24.402Z,55.70
2017-08-21T13:51:25.858Z,54.30
2017-08-21T13:54:27.362Z,55.50
2017-08-21T13:57:28.944Z,54.10
2017-08-21T14:00:30.450Z,57.50
2017-08-21T14:03:33.014Z,53.20
2017-08-21T14:06:34.635Z,52.50
2017-08-21T14:09:36.438Z,56.20
2017-08-21T14:12:37.829Z,49.90
2017-08-21T14:15:39.601Z,53.50
2017-08-21T14:18:41.082Z,55.10
2017-08-21T14:21:42.700Z,58.40
2017-08-21T14:24:44.106Z,56.40
2017-08-21T14:27:46.189Z,59.30
2017-08-21T14:30:47.838Z,56.70
2017-08-21T14:33:49.326Z,56.60
2017-08-21T14:36:50.792Z,49.70
2017-08-21T14:39:52.271Z,55.60
2017-08-21T14:42:53.762Z,54.70
2017-08-21T14:45:55.234Z,56.90
2017-08-21T14:48:56.702Z,56.80
2017-08-21T14:51:58.188Z,54.10
2017-08-21T14:54:59.597Z,56.20
2017-08-21T14:58:01.044Z,58.80
2017-08-21T15:01:02.512Z,55.90
2017-08-21T15:04:04.112Z,56.90
2017-08-21T15:07:05.553Z,58.40
2017-08-21T15:10:07.018Z,53.70
2017-08-21T15:13:08.425Z,55.40
2017-08-21T15:16:09.857Z,53.10
2017-08-21T15:19:11.324Z,55.60
2017-08-21T15:22:12.714Z,48.70
2017-08-21T15:25:14.135Z,54.10
2017-08-21T15:28:15.551Z,53.40
2017-08-21T15:31:17.026Z,54.20
2017-08-21T15:34:18.432Z,56.20
2017-08-21T15:37:19.876Z,57.50
2017-08-21T15:40:21.328Z,58.30
2017-08-21T15:43:22.665Z,58.40
2017-08-21T15:46:24.044Z,58.60
2017-08-21T15:49:25.419Z,58.70
2017-08-21T15:52:26.782Z,58.90
2017-08-21T15:55:28.173Z,56.10
2017-08-21T15:58:29.573Z,56.30
2017-08-21T16:01:30.914Z,54.10
2017-08-21T16:04:32.373Z,55.60
2017-08-21T16:07:33.764Z,58.10
2017-08-21T16:10:35.098Z,55.60
2017-08-21T16:13:36.494Z,57.80
2017-08-21T16:16:37.840Z,58.30
2017-08-21T16:19:39.251Z,57.30
2017-08-21T16:22:40.601Z,57.10
2017-08-21T16:25:41.970Z,53.00
2017-08-21T16:28:43.313Z,50.20
2017-08-21T16:31:44.738Z,54.10
2017-08-21T16:34:46.156Z,53.40
2017-08-21T16:37:47.525Z,54.90
2017-08-21T16:40:48.933Z,51.00
2017-08-21T16:43:50.305Z,55.40
2017-08-21T16:46:51.713Z,53.90
2017-08-21T16:49:53.092Z,55.40
2017-08-21T16:52:54.420Z,53.60
2017-08-21T16:55:55.865Z,53.80
2017-08-21T16:58:57.220Z,57.30
2017-08-21T17:01:58.651Z,56.40
2017-08-21T17:05:00.002Z,58.10
2017-08-21T17:08:01.364Z,59.70
2017-08-21T17:11:02.778Z,64.00
2017-08-21T17:14:04.135Z,61.90
2017-08-21T17:17:05.546Z,64.40
2017-08-21T17:20:06.944Z,62.20
2017-08-21T17:23:08.325Z,61.10
2017-08-21T17:26:09.712Z,64.70
2017-08-21T17:29:11.089Z,63.30
2017-08-21T17:32:12.481Z,64.30
2017-08-21T17:35:13.865Z,66.90
2017-08-21T17:38:15.182Z,68.10
2017-08-21T17:41:16.568Z,68.20
2017-08-21T17:44:17.914Z,68.40
2017-08-21T17:47:19.308Z,69.60
2017-08-21T17:50:20.672Z,68.10
2017-08-21T17:53:22.017Z,66.10
2017-08-21T17:56:23.394Z,68.60
2017-08-21T17:59:24.741Z,68.80
2017-08-21T18:02:26.142Z,68.80
2017-08-21T18:05:27.545Z,68.90
2017-08-21T18:08:28.901Z,68.90
2017-08-21T18:11:30.591Z,68.70
2017-08-21T18:14:32.208Z,68.50
2017-08-21T18:17:34.548Z,68.20
2017-08-21T18:20:36.759Z,67.20
2017-08-21T18:23:38.227Z,67.10
2017-08-21T18:26:40.600Z,67.60
2017-08-21T18:29:43.655Z,67.70
2017-08-21T18:32:47.406Z,67.40
2017-08-21T18:35:49.936Z,67.60
2017-08-21T18:38:51.354Z,67.40
2017-08-21T18:41:52.729Z,65.40
2017-08-21T18:44:55.154Z,66.40
2017-08-21T18:47:56.657Z,66.50
2017-08-21T18:50:58.077Z,66.40
2017-08-21T18:54:00.001Z,66.40
2017-08-21T18:57:01.744Z,66.20
2017-08-21T19:00:04.354Z,65.80
2017-08-21T19:03:05.870Z,65.70
2017-08-21T19:06:10.832Z,65.40
2017-08-21T19:09:13.479Z,65.20
2017-08-21T19:12:16.047Z,65.90
2017-08-21T19:15:19.009Z,64.90
2017-08-21T19:18:20.738Z,65.20
2017-08-21T19:21:22.408Z,64.70
2017-08-21T19:24:27.046Z,64.30
2017-08-21T19:27:28.368Z,64.40
2017-08-21T19:30:30.827Z,64.00
2017-08-21T19:33:33.899Z,63.90
2017-08-21T19:36:36.016Z,64.20
2017-08-21T19:39:38.969Z,63.80
2017-08-21T19:42:40.452Z,64.10
2017-08-21T19:45:44.460Z,64.10
2017-08-21T19:48:46.111Z,64.10
2017-08-21T19:51:48.171Z,64.20
2017-08-21T19:54:49.896Z,64.00
2017-08-21T19:57:52.456Z,63.70
2017-08-21T20:00:53.833Z,64.10
2017-08-21T20:04:02.961Z,64.80
2017-08-21T20:07:05.876Z,66.10
2017-08-21T20:10:08.835Z,64.10
2017-08-21T20:13:10.335Z,64.20
2017-08-21T20:16:12.262Z,63.80
2017-08-21T20:19:14.113Z,63.60
2017-08-21T20:22:16.343Z,63.50
2017-08-21T20:25:18.001Z,62.10
2017-08-21T20:28:19.509Z,62.10
2017-08-21T20:31:22.488Z,63.70
2017-08-21T20:34:25.018Z,63.20
2017-08-21T20:37:26.896Z,63.50
2017-08-21T20:40:29.923Z,63.50
2017-08-21T20:43:32.647Z,63.80
2017-08-21T20:46:35.539Z,63.90
2017-08-21T20:49:37.355Z,65.00
2017-08-21T20:52:39.875Z,64.70
2017-08-21T20:55:42.729Z,65.50
2017-08-21T20:58:44.603Z,65.80
2017-08-21T21:01:46.343Z,65.10
2017-08-21T21:04:47.852Z,64.90
2017-08-21T21:07:49.303Z,65.40
2017-08-21T21:10:50.857Z,65.30
2017-08-21T21:13:52.368Z,65.60
2017-08-21T21:16:53.821Z,65.30
2017-08-21T21:19:55.324Z,65.30
2017-08-21T21:22:57.165Z,65.80
2017-08-21T21:25:58.980Z,66.10
2017-08-21T21:29:00.575Z,65.80
2017-08-21T21:32:02.043Z,66.20
2017-08-21T21:35:03.522Z,66.80
2017-08-21T21:38:05.089Z,67.70
2017-08-21T21:41:06.637Z,67.20
2017-08-21T21:44:08.132Z,66.70
2017-08-21T21:47:09.544Z,66.90
2017-08-21T21:50:11.020Z,67.20
2017-08-21T21:53:12.421Z,67.10
2017-08-21T21:56:13.909Z,67.10
2017-08-21T21:59:15.360Z,67.60
2017-08-21T22:02:16.854Z,67.90
2017-08-21T22:05:18.395Z,67.70
2017-08-21T22:08:19.811Z,67.10
2017-08-21T22:11:21.297Z,67.20
2017-08-21T22:14:22.760Z,67.60
2017-08-21T22:17:24.222Z,67.80
2017-08-21T22:20:25.684Z,68.10
2017-08-21T22:23:27.137Z,67.90
2017-08-21T22:26:28.789Z,68.20
2017-08-21T22:29:30.248Z,68.10
2017-08-21T22:32:31.770Z,67.90
2017-08-21T22:35:33.274Z,68.20
2017-08-21T22:38:34.844Z,67.90
2017-08-21T22:41:36.273Z,67.30
2017-08-21T22:44:37.745Z,67.90
2017-08-21T22:47:39.197Z,68.00
2017-08-21T22:50:40.742Z,68.00
2017-08-21T22:53:42.455Z,67.90
2017-08-21T22:56:43.918Z,68.20
2017-08-21T22:59:45.385Z,68.40
2017-08-21T23:02:46.825Z,68.30
2017-08-21T23:05:48.325Z,68.60
2017-08-21T23:08:49.757Z,68.70
2017-08-21T23:11:51.197Z,68.00
2017-08-21T23:14:52.613Z,68.90
2017-08-21T23:17:54.050Z,69.60
2017-08-21T23:20:55.477Z,69.00
2017-08-21T23:23:57.010Z,68.60
2017-08-21T23:26:58.529Z,68.60
2017-08-21T23:29:59.930Z,68.40
2017-08-21T23:33:01.358Z,67.70
2017-08-21T23:36:02.829Z,67.20
2017-08-21T23:39:04.277Z,68.10
2017-08-21T23:42:05.700Z,68.60
2017-08-21T23:45:07.165Z,68.70
2017-08-21T23:48:08.619Z,68.30
2017-08-21T23:51:10.137Z,69.00
2017-08-21T23:54:11.578Z,69.40
2017-08-21T23:57:13.053Z,68.60
